createdAt,value
2023-05-21T00:00:41.508Z,0.00
2023-05-21T00:01:41.500Z,0.00
2023-05-21T00:02:41.559Z,0.00
2023-05-21T00:03:41.758Z,0.00
2023-05-21T00:04:41.566Z,0.00
2023-05-21T00:05:41.592Z,0.00
2023-05-21T00:06:41.613Z,0.00
2023-05-21T00:07:41.635Z,0.00
2023-05-21T00:08:41.676Z,0.00
2023-05-21T00:09:41.752Z,0.00
2023-05-21T00:10:41.695Z,0.00
2023-05-21T00:11:41.719Z,0.00
2023-05-21T00:12:41.934Z,0.00
2023-05-21T00:13:41.768Z,0.00
2023-05-21T00:14:41.861Z,0.00
2023-05-21T00:15:41.822Z,0.00
2023-05-21T00:16:41.843Z,0.00
2023-05-21T00:17:41.930Z,0.00
2023-05-21T00:18:41.866Z,0.00
2023-05-21T00:19:41.904Z,0.00
2023-05-21T00:20:41.909Z,0.00
2023-05-21T00:21:41.967Z,0.00
2023-05-21T00:22:41.947Z,0.00
2023-05-21T00:23:41.963Z,0.00
2023-05-21T00:24:41.981Z,0.00
2023-05-21T00:25:42.011Z,0.00
2023-05-21T00:26:42.066Z,0.00
2023-05-21T00:27:42.055Z,0.00
2023-05-21T00:28:42.097Z,0.00
2023-05-21T00:29:44.121Z,0.00
2023-05-21T00:30:42.111Z,0.00
2023-05-21T00:31:42.237Z,0.00
2023-05-21T00:32:42.188Z,0.00
2023-05-21T00:33:42.215Z,0.00
2023-05-21T00:34:42.230Z,0.00
2023-05-21T00:35:42.207Z,0.00
2023-05-21T00:36:42.269Z,0.00
2023-05-21T00:37:42.281Z,0.00
2023-05-21T00:38:42.268Z,0.00
2023-05-21T00:39:42.288Z,0.00
2023-05-21T00:40:42.321Z,0.00
2023-05-21T00:41:42.340Z,0.00
2023-05-21T00:42:42.416Z,0.00
2023-05-21T00:43:42.374Z,0.00
2023-05-21T00:44:42.394Z,0.00
2023-05-21T00:45:42.446Z,0.00
2023-05-21T00:46:42.435Z,0.00
2023-05-21T00:47:42.584Z,0.00
2023-05-21T00:48:42.509Z,0.00
2023-05-21T00:49:42.497Z,0.00
2023-05-21T00:50:42.515Z,0.00
2023-05-21T00:51:42.548Z,0.00
2023-05-21T00:52:42.569Z,0.00
2023-05-21T00:53:42.661Z,0.00
2023-05-21T00:54:42.599Z,0.00
2023-05-21T00:55:42.627Z,0.00
2023-05-21T00:56:42.635Z,0.00
2023-05-21T00:57:42.713Z,0.00
2023-05-21T00:58:42.710Z,0.00
2023-05-21T00:59:42.703Z,0.00
2023-05-21T01:00:42.720Z,0.00
2023-05-21T01:01:42.853Z,0.00
2023-05-21T01:02:42.855Z,0.00
2023-05-21T01:03:42.873Z,0.00
2023-05-21T01:04:42.833Z,0.00
2023-05-21T01:05:42.831Z,0.00
2023-05-21T01:06:42.843Z,0.00
2023-05-21T01:07:42.861Z,0.00
2023-05-21T01:08:42.921Z,0.00
2023-05-21T01:09:42.917Z,0.00
2023-05-21T01:10:42.922Z,0.00
2023-05-21T01:11:42.977Z,0.00
2023-05-21T01:12:42.965Z,0.00
2023-05-21T01:13:43.004Z,0.00
2023-05-21T01:14:43.070Z,0.00
2023-05-21T01:15:43.030Z,0.00
2023-05-21T01:16:43.059Z,0.00
2023-05-21T01:17:43.113Z,0.00
2023-05-21T01:18:43.209Z,0.00
2023-05-21T01:19:43.164Z,0.00
2023-05-21T01:20:43.131Z,0.00
2023-05-21T01:21:43.186Z,0.00
2023-05-21T01:22:43.168Z,0.00
2023-05-21T01:23:43.190Z,0.00
2023-05-21T01:24:43.213Z,0.00
2023-05-21T01:25:43.235Z,0.00
2023-05-21T01:26:43.255Z,0.00
2023-05-21T01:27:43.274Z,0.00
2023-05-21T01:28:43.296Z,0.00
2023-05-21T01:29:43.325Z,0.00
2023-05-21T01:30:43.353Z,0.00
2023-05-21T01:31:43.382Z,0.00
2023-05-21T01:32:43.469Z,0.00
2023-05-21T01:33:43.449Z,0.00
2023-05-21T01:34:43.421Z,0.00
2023-05-21T01:35:43.438Z,0.00
2023-05-21T01:36:43.454Z,0.00
2023-05-21T01:37:43.477Z,0.00
2023-05-21T01:38:43.503Z,0.00
2023-05-21T01:39:43.532Z,0.00
2023-05-21T01:40:43.545Z,0.00
2023-05-21T01:41:43.560Z,0.00
2023-05-21T01:42:43.607Z,0.00
2023-05-21T01:43:43.656Z,0.00
2023-05-21T01:44:43.638Z,0.00
2023-05-21T01:45:43.653Z,0.00
2023-05-21T01:46:43.793Z,0.00
2023-05-21T01:47:43.704Z,0.00
2023-05-21T01:48:43.732Z,0.00
2023-05-21T01:49:43.724Z,0.00
2023-05-21T01:50:43.753Z,0.00
2023-05-21T01:51:43.778Z,0.00
2023-05-21T01:52:43.817Z,0.00
2023-05-21T01:53:43.842Z,0.00
2023-05-21T01:54:43.839Z,0.00
2023-05-21T01:55:43.849Z,0.00
2023-05-21T01:56:43.871Z,0.00
2023-05-21T01:57:43.893Z,0.00
2023-05-21T01:58:43.954Z,0.00
2023-05-21T01:59:43.930Z,0.00
2023-05-21T02:00:43.951Z,0.00
2023-05-21T02:01:44.078Z,0.00
2023-05-21T02:02:44.088Z,0.00
2023-05-21T02:03:44.091Z,0.00
2023-05-21T02:04:44.038Z,0.00
2023-05-21T02:05:44.101Z,0.00
2023-05-21T02:06:44.100Z,0.00
2023-05-21T02:07:44.092Z,0.00
2023-05-21T02:08:44.129Z,0.00
2023-05-21T02:09:44.133Z,0.00
2023-05-21T02:10:44.159Z,0.00
2023-05-21T02:11:44.212Z,0.00
2023-05-21T02:12:44.217Z,0.00
2023-05-21T02:13:44.246Z,0.00
2023-05-21T02:14:44.242Z,0.00
2023-05-21T02:15:44.256Z,0.00
2023-05-21T02:16:44.360Z,0.00
2023-05-21T02:17:44.337Z,0.00
2023-05-21T02:18:44.375Z,0.00
2023-05-21T02:19:44.339Z,0.00
2023-05-21T02:20:44.359Z,0.00
2023-05-21T02:21:44.391Z,0.00
2023-05-21T02:22:44.401Z,0.00
2023-05-21T02:23:44.474Z,0.00
2023-05-21T02:24:44.450Z,0.00
2023-05-21T02:25:44.466Z,0.00
2023-05-21T02:26:44.488Z,0.00
2023-05-21T02:27:44.524Z,0.00
2023-05-21T02:28:44.558Z,0.00
2023-05-21T02:29:44.543Z,0.00
2023-05-21T02:30:44.567Z,0.00
2023-05-21T02:31:44.585Z,0.00
2023-05-21T02:32:44.691Z,0.00
2023-05-21T02:33:44.830Z,0.00
2023-05-21T02:34:44.642Z,0.00
2023-05-21T02:35:44.663Z,0.00
2023-05-21T02:36:44.684Z,0.00
2023-05-21T02:37:44.711Z,0.00
2023-05-21T02:38:44.751Z,0.00
2023-05-21T02:39:44.748Z,0.00
2023-05-21T02:40:44.764Z,0.00
2023-05-21T02:41:44.782Z,0.00
2023-05-21T02:42:44.804Z,0.00
2023-05-21T02:43:44.857Z,0.00
2023-05-21T02:44:44.845Z,0.00
2023-05-21T02:45:44.951Z,0.00
2023-05-21T02:46:44.893Z,0.00
2023-05-21T02:47:44.934Z,0.00
2023-05-21T02:48:44.937Z,0.00
2023-05-21T02:49:44.959Z,0.00
2023-05-21T02:50:44.998Z,0.00
2023-05-21T02:51:45.028Z,0.00
2023-05-21T02:52:45.004Z,0.00
2023-05-21T02:53:45.033Z,0.00
2023-05-21T02:54:45.040Z,0.00
2023-05-21T02:55:45.071Z,0.00
2023-05-21T02:56:45.111Z,0.00
2023-05-21T02:57:45.101Z,0.00
2023-05-21T02:58:45.125Z,0.00
2023-05-21T02:59:45.143Z,4.00
2023-05-21T03:00:45.165Z,4.00
2023-05-21T03:01:45.402Z,0.00
2023-05-21T03:02:45.309Z,0.00
2023-05-21T03:03:45.294Z,4.00
2023-05-21T03:04:45.246Z,4.00
2023-05-21T03:05:45.297Z,0.00
2023-05-21T03:06:45.301Z,4.00
2023-05-21T03:07:45.349Z,4.00
2023-05-21T03:08:45.320Z,4.00
2023-05-21T03:09:45.366Z,4.00
2023-05-21T03:10:45.363Z,4.00
2023-05-21T03:11:45.398Z,4.00
2023-05-21T03:12:45.451Z,4.00
2023-05-21T03:13:45.457Z,8.00
2023-05-21T03:14:45.445Z,4.00
2023-05-21T03:15:45.468Z,8.00
2023-05-21T03:16:45.557Z,8.00
2023-05-21T03:17:45.574Z,8.00
2023-05-21T03:18:45.546Z,12.00
2023-05-21T03:19:45.562Z,12.00
2023-05-21T03:20:45.565Z,12.00
2023-05-21T03:21:45.615Z,12.00
2023-05-21T03:22:45.636Z,16.00
2023-05-21T03:23:45.633Z,16.00
2023-05-21T03:24:45.672Z,16.00
2023-05-21T03:25:45.662Z,20.00
2023-05-21T03:26:45.681Z,20.00
2023-05-21T03:27:45.706Z,20.00
2023-05-21T03:28:45.721Z,20.00
2023-05-21T03:29:45.781Z,24.00
2023-05-21T03:30:45.767Z,24.00
2023-05-21T03:31:45.833Z,28.00
2023-05-21T03:32:45.824Z,28.00
2023-05-21T03:33:45.824Z,32.00
2023-05-21T03:34:45.888Z,28.00
2023-05-21T03:35:45.869Z,32.00
2023-05-21T03:36:45.887Z,32.00
2023-05-21T03:37:45.917Z,36.00
2023-05-21T03:38:45.925Z,36.00
2023-05-21T03:39:45.977Z,36.00
2023-05-21T03:40:45.978Z,40.00
2023-05-21T03:41:45.986Z,40.00
2023-05-21T03:42:46.018Z,40.00
2023-05-21T03:43:46.040Z,40.00
2023-05-21T03:44:46.074Z,40.00
2023-05-21T03:45:46.099Z,40.00
2023-05-21T03:46:46.116Z,40.00
2023-05-21T03:47:46.146Z,36.00
2023-05-21T03:48:46.129Z,36.00
2023-05-21T03:49:46.212Z,40.00
2023-05-21T03:50:46.163Z,40.00
2023-05-21T03:51:46.178Z,44.00
2023-05-21T03:52:46.216Z,40.00
2023-05-21T03:53:46.232Z,44.00
2023-05-21T03:54:46.266Z,44.00
2023-05-21T03:55:46.256Z,44.00
2023-05-21T03:56:46.279Z,44.00
2023-05-21T03:57:46.302Z,52.00
2023-05-21T03:58:46.323Z,48.00
2023-05-21T03:59:46.336Z,52.00
2023-05-21T04:00:46.358Z,60.00
2023-05-21T04:01:46.410Z,64.00
2023-05-21T04:02:46.466Z,68.00
2023-05-21T04:03:46.880Z,72.00
2023-05-21T04:04:46.457Z,76.00
2023-05-21T04:05:46.460Z,84.00
2023-05-21T04:06:46.500Z,92.00
2023-05-21T04:07:46.531Z,104.00
2023-05-21T04:08:46.549Z,108.00
2023-05-21T04:09:46.549Z,120.00
2023-05-21T04:10:46.559Z,128.00
2023-05-21T04:11:46.581Z,136.00
2023-05-21T04:12:46.601Z,148.00
2023-05-21T04:13:46.645Z,156.00
2023-05-21T04:14:46.651Z,164.00
2023-05-21T04:15:46.752Z,176.00
2023-05-21T04:16:46.679Z,184.00
2023-05-21T04:17:46.760Z,188.00
2023-05-21T04:18:46.836Z,196.00
2023-05-21T04:19:46.781Z,200.00
2023-05-21T04:20:46.757Z,204.00
2023-05-21T04:21:46.777Z,204.00
2023-05-21T04:22:46.798Z,208.00
2023-05-21T04:23:46.823Z,212.00
2023-05-21T04:24:46.908Z,216.00
2023-05-21T04:25:46.866Z,216.00
2023-05-21T04:26:46.881Z,216.00
2023-05-21T04:27:46.898Z,220.00
2023-05-21T04:28:46.920Z,220.00
2023-05-21T04:29:48.462Z,220.00
2023-05-21T04:30:46.988Z,224.00
2023-05-21T04:31:47.051Z,224.00
2023-05-21T04:32:47.014Z,228.00
2023-05-21T04:33:47.014Z,232.00
2023-05-21T04:34:47.039Z,236.00
2023-05-21T04:35:47.102Z,240.00
2023-05-21T04:36:47.080Z,244.00
2023-05-21T04:37:47.095Z,248.00
2023-05-21T04:38:47.120Z,256.00
2023-05-21T04:39:47.140Z,264.00
2023-05-21T04:40:47.187Z,272.00
2023-05-21T04:41:47.195Z,280.00
2023-05-21T04:42:47.197Z,292.00
2023-05-21T04:43:47.214Z,304.00
2023-05-21T04:44:47.252Z,316.00
2023-05-21T04:45:47.284Z,332.00
2023-05-21T04:46:47.300Z,352.00
2023-05-21T04:47:47.341Z,368.00
2023-05-21T04:48:47.318Z,384.00
2023-05-21T04:49:47.336Z,408.00
2023-05-21T04:50:47.435Z,420.00
2023-05-21T04:51:47.378Z,432.00
2023-05-21T04:52:47.396Z,440.00
2023-05-21T04:53:47.427Z,456.00
2023-05-21T04:54:47.463Z,468.00
2023-05-21T04:55:47.499Z,480.00
2023-05-21T04:56:47.493Z,496.00
2023-05-21T04:57:47.512Z,504.00
2023-05-21T04:58:47.576Z,508.00
2023-05-21T04:59:47.535Z,512.00
2023-05-21T05:00:47.644Z,520.00
2023-05-21T05:01:47.577Z,524.00
2023-05-21T05:02:47.646Z,520.00
2023-05-21T05:03:47.682Z,532.00
2023-05-21T05:04:47.638Z,528.00
2023-05-21T05:05:47.669Z,540.00
2023-05-21T05:06:47.679Z,548.00
2023-05-21T05:07:47.728Z,552.00
2023-05-21T05:08:47.722Z,560.00
2023-05-21T05:09:47.745Z,568.00
2023-05-21T05:10:47.761Z,572.00
2023-05-21T05:11:47.790Z,576.00
2023-05-21T05:12:47.825Z,584.00
2023-05-21T05:13:47.826Z,592.00
2023-05-21T05:14:47.847Z,600.00
2023-05-21T05:15:49.902Z,604.00
2023-05-21T05:16:47.930Z,604.00
2023-05-21T05:17:47.966Z,616.00
2023-05-21T05:18:47.955Z,624.00
2023-05-21T05:19:47.937Z,632.00
2023-05-21T05:20:47.971Z,640.00
2023-05-21T05:21:47.979Z,656.00
2023-05-21T05:22:48.029Z,648.00
2023-05-21T05:23:48.021Z,652.00
2023-05-21T05:24:48.042Z,664.00
2023-05-21T05:25:48.062Z,668.00
2023-05-21T05:26:48.080Z,660.00
2023-05-21T05:27:48.140Z,660.00
2023-05-21T05:28:48.131Z,660.00
2023-05-21T05:29:48.165Z,664.00
2023-05-21T05:30:48.211Z,676.00
2023-05-21T05:31:48.181Z,676.00
2023-05-21T05:32:48.279Z,684.00
2023-05-21T05:33:48.221Z,692.00
2023-05-21T05:34:48.242Z,696.00
2023-05-21T05:35:48.265Z,700.00
2023-05-21T05:36:48.284Z,712.00
2023-05-21T05:37:48.328Z,716.00
2023-05-21T05:38:48.328Z,716.00
2023-05-21T05:39:48.368Z,724.00
2023-05-21T05:40:48.381Z,732.00
2023-05-21T05:41:48.387Z,740.00
2023-05-21T05:42:48.436Z,748.00
2023-05-21T05:43:48.438Z,756.00
2023-05-21T05:44:48.496Z,756.00
2023-05-21T05:45:48.499Z,764.00
2023-05-21T05:46:48.516Z,764.00
2023-05-21T05:47:48.541Z,776.00
2023-05-21T05:48:48.535Z,772.00
2023-05-21T05:49:48.578Z,776.00
2023-05-21T05:50:48.566Z,780.00
2023-05-21T05:51:48.590Z,784.00
2023-05-21T05:52:48.608Z,800.00
2023-05-21T05:53:48.640Z,796.00
2023-05-21T05:54:48.727Z,808.00
2023-05-21T05:55:48.676Z,808.00
2023-05-21T05:56:48.737Z,812.00
2023-05-21T05:57:48.705Z,816.00
2023-05-21T05:58:49.517Z,820.00
2023-05-21T05:59:48.746Z,820.00
2023-05-21T06:00:48.771Z,820.00
2023-05-21T06:01:48.834Z,820.00
2023-05-21T06:02:48.923Z,820.00
2023-05-21T06:03:48.974Z,816.00
2023-05-21T06:04:48.853Z,820.00
2023-05-21T06:05:48.909Z,820.00
2023-05-21T06:06:48.919Z,828.00
2023-05-21T06:07:48.909Z,832.00
2023-05-21T06:08:48.931Z,840.00
2023-05-21T06:09:48.950Z,844.00
2023-05-21T06:10:48.996Z,848.00
2023-05-21T06:11:49.018Z,852.00
2023-05-21T06:12:49.022Z,856.00
2023-05-21T06:13:49.073Z,864.00
2023-05-21T06:14:49.055Z,864.00
2023-05-21T06:15:49.126Z,868.00
2023-05-21T06:16:49.126Z,872.00
2023-05-21T06:17:49.153Z,868.00
2023-05-21T06:18:49.164Z,872.00
2023-05-21T06:19:49.188Z,872.00
2023-05-21T06:20:49.181Z,880.00
2023-05-21T06:21:49.196Z,872.00
2023-05-21T06:22:49.272Z,876.00
2023-05-21T06:23:49.241Z,896.00
2023-05-21T06:24:49.300Z,892.00
2023-05-21T06:25:49.292Z,904.00
2023-05-21T06:26:49.301Z,904.00
2023-05-21T06:27:49.323Z,900.00
2023-05-21T06:28:49.430Z,896.00
2023-05-21T06:29:49.360Z,896.00
2023-05-21T06:30:49.390Z,892.00
2023-05-21T06:31:49.405Z,896.00
2023-05-21T06:32:49.546Z,888.00
2023-05-21T06:33:49.633Z,888.00
2023-05-21T06:34:49.483Z,900.00
2023-05-21T06:35:49.488Z,896.00
2023-05-21T06:36:49.510Z,900.00
2023-05-21T06:37:49.544Z,904.00
2023-05-21T06:38:49.575Z,912.00
2023-05-21T06:39:49.571Z,920.00
2023-05-21T06:40:49.597Z,924.00
2023-05-21T06:41:49.612Z,932.00
2023-05-21T06:42:49.654Z,940.00
2023-05-21T06:43:49.716Z,952.00
2023-05-21T06:44:49.691Z,964.00
2023-05-21T06:45:49.764Z,964.00
2023-05-21T06:46:49.715Z,984.00
2023-05-21T06:47:49.760Z,988.00
2023-05-21T06:48:49.763Z,976.00
2023-05-21T06:49:49.799Z,988.00
2023-05-21T06:50:49.829Z,992.00
2023-05-21T06:51:49.826Z,996.00
2023-05-21T06:52:49.845Z,1008.00
2023-05-21T06:53:49.864Z,1008.00
2023-05-21T06:54:49.884Z,1024.00
2023-05-21T06:55:49.906Z,1008.00
2023-05-21T06:56:49.956Z,1024.00
2023-05-21T06:57:49.962Z,1040.00
2023-05-21T06:58:49.967Z,1052.00
2023-05-21T06:59:50.001Z,1068.00
2023-05-21T07:00:50.079Z,1076.00
2023-05-21T07:01:50.048Z,1084.00
2023-05-21T07:02:50.182Z,1108.00
2023-05-21T07:03:50.074Z,1112.00
2023-05-21T07:04:50.111Z,1116.00
2023-05-21T07:05:50.120Z,1116.00
2023-05-21T07:06:50.182Z,1124.00
2023-05-21T07:07:50.157Z,1132.00
2023-05-21T07:08:50.175Z,1124.00
2023-05-21T07:09:50.205Z,1136.00
2023-05-21T07:10:50.225Z,1140.00
2023-05-21T07:11:50.276Z,1136.00
2023-05-21T07:12:50.261Z,1132.00
2023-05-21T07:13:50.302Z,1160.00
2023-05-21T07:14:50.302Z,1164.00
2023-05-21T07:15:50.343Z,1148.00
2023-05-21T07:16:50.380Z,1156.00
2023-05-21T07:17:50.409Z,1148.00
2023-05-21T07:18:50.416Z,1156.00
2023-05-21T07:19:50.413Z,1156.00
2023-05-21T07:20:50.445Z,1160.00
2023-05-21T07:21:50.482Z,1156.00
2023-05-21T07:22:50.481Z,1156.00
2023-05-21T07:23:50.542Z,1156.00
2023-05-21T07:24:50.527Z,1160.00
2023-05-21T07:25:50.535Z,1164.00
2023-05-21T07:26:50.564Z,1188.00
2023-05-21T07:27:50.580Z,1220.00
2023-05-21T07:28:50.597Z,1228.00
2023-05-21T07:29:50.644Z,1240.00
2023-05-21T07:30:50.668Z,1268.00
2023-05-21T07:31:50.662Z,1280.00
2023-05-21T07:32:50.701Z,1308.00
2023-05-21T07:33:50.708Z,1316.00
2023-05-21T07:34:52.161Z,1328.00
2023-05-21T07:35:50.747Z,1348.00
2023-05-21T07:36:50.774Z,1360.00
2023-05-21T07:37:50.958Z,1372.00
2023-05-21T07:38:50.816Z,1408.00
2023-05-21T07:39:50.889Z,1416.00
2023-05-21T07:40:50.867Z,1428.00
2023-05-21T07:41:50.880Z,1464.00
2023-05-21T07:42:50.899Z,1472.00
2023-05-21T07:43:50.942Z,1484.00
2023-05-21T07:44:50.969Z,1484.00
2023-05-21T07:45:51.011Z,1512.00
2023-05-21T07:46:50.983Z,1560.00
2023-05-21T07:47:51.074Z,1556.00
2023-05-21T07:48:51.032Z,1556.00
2023-05-21T07:49:51.059Z,1556.00
2023-05-21T07:50:51.115Z,1564.00
2023-05-21T07:51:51.100Z,1564.00
2023-05-21T07:52:51.150Z,1572.00
2023-05-21T07:53:52.329Z,1564.00
2023-05-21T07:54:51.238Z,1576.00
2023-05-21T07:55:51.225Z,1596.00
2023-05-21T07:56:51.232Z,1584.00
2023-05-21T07:57:51.226Z,1584.00
2023-05-21T07:58:51.255Z,1592.00
2023-05-21T07:59:51.284Z,1628.00
2023-05-21T08:00:51.298Z,1596.00
2023-05-21T08:01:51.346Z,1608.00
2023-05-21T08:02:51.377Z,1612.00
2023-05-21T08:03:51.526Z,1616.00
2023-05-21T08:04:51.428Z,1636.00
2023-05-21T08:05:51.407Z,1660.00
2023-05-21T08:06:51.458Z,1648.00
2023-05-21T08:07:51.450Z,1668.00
2023-05-21T08:08:51.473Z,1716.00
2023-05-21T08:09:51.545Z,1700.00
2023-05-21T08:10:51.509Z,1688.00
2023-05-21T08:11:51.568Z,1664.00
2023-05-21T08:12:51.586Z,1688.00
2023-05-21T08:13:51.584Z,1696.00
2023-05-21T08:14:51.601Z,1732.00
2023-05-21T08:15:53.386Z,1784.00
2023-05-21T08:16:51.717Z,1752.00
2023-05-21T08:17:51.781Z,1736.00
2023-05-21T08:18:51.761Z,1728.00
2023-05-21T08:19:51.716Z,1708.00
2023-05-21T08:20:51.731Z,1716.00
2023-05-21T08:21:53.144Z,1704.00
2023-05-21T08:22:51.801Z,1676.00
2023-05-21T08:23:51.797Z,1668.00
2023-05-21T08:24:51.823Z,1652.00
2023-05-21T08:25:51.855Z,1648.00
2023-05-21T08:26:51.915Z,1656.00
2023-05-21T08:27:52.576Z,1656.00
2023-05-21T08:28:51.911Z,1700.00
2023-05-21T08:29:51.935Z,1700.00
2023-05-21T08:30:51.954Z,1692.00
2023-05-21T08:31:52.008Z,1724.00
2023-05-21T08:32:52.091Z,1716.00
2023-05-21T08:33:52.025Z,1736.00
2023-05-21T08:34:52.044Z,1748.00
2023-05-21T08:35:52.068Z,1764.00
2023-05-21T08:36:52.086Z,1788.00
2023-05-21T08:37:52.157Z,1780.00
2023-05-21T08:38:52.137Z,1792.00
2023-05-21T08:39:52.165Z,1788.00
2023-05-21T08:40:52.179Z,1812.00
2023-05-21T08:41:52.226Z,1852.00
2023-05-21T08:42:52.222Z,1896.00
2023-05-21T08:43:53.581Z,1924.00
2023-05-21T08:44:52.273Z,1920.00
2023-05-21T08:45:52.355Z,1912.00
2023-05-21T08:46:52.322Z,1932.00
2023-05-21T08:47:52.344Z,2000.00
2023-05-21T08:48:52.358Z,2056.00
2023-05-21T08:49:52.383Z,2028.00
2023-05-21T08:50:52.432Z,2008.00
2023-05-21T08:51:52.437Z,2032.00
2023-05-21T08:52:52.463Z,2032.00
2023-05-21T08:53:52.474Z,2136.00
2023-05-21T08:54:52.496Z,2208.00
2023-05-21T08:55:52.562Z,2244.00
2023-05-21T08:56:52.542Z,2108.00
2023-05-21T08:57:52.583Z,2388.00
2023-05-21T08:58:52.585Z,3060.00
2023-05-21T08:59:52.611Z,3052.00
2023-05-21T09:00:52.758Z,3028.00
2023-05-21T09:01:52.802Z,2864.00
2023-05-21T09:02:52.708Z,2880.00
2023-05-21T09:03:53.574Z,2812.00
2023-05-21T09:04:52.777Z,2776.00
2023-05-21T09:05:52.752Z,2788.00
2023-05-21T09:06:52.770Z,3036.00
2023-05-21T09:07:52.899Z,3504.00
2023-05-21T09:08:52.818Z,3976.00
2023-05-21T09:09:52.881Z,4260.00
2023-05-21T09:10:52.890Z,4440.00
2023-05-21T09:11:52.887Z,4132.00
2023-05-21T09:12:52.911Z,4152.00
2023-05-21T09:13:52.944Z,4364.00
2023-05-21T09:14:53.000Z,5124.00
2023-05-21T09:15:53.029Z,5152.00
2023-05-21T09:16:53.066Z,5260.00
2023-05-21T09:17:53.139Z,4836.00
2023-05-21T09:18:53.087Z,4216.00
2023-05-21T09:19:53.080Z,4756.00
2023-05-21T09:20:53.142Z,4528.00
2023-05-21T09:21:53.140Z,4700.00
2023-05-21T09:22:53.163Z,4732.00
2023-05-21T09:23:53.190Z,4520.00
2023-05-21T09:24:53.206Z,4512.00
2023-05-21T09:25:53.371Z,4764.00
2023-05-21T09:26:53.256Z,3976.00
2023-05-21T09:27:53.309Z,3000.00
2023-05-21T09:28:53.319Z,2584.00
2023-05-21T09:29:53.340Z,2900.00
2023-05-21T09:30:53.400Z,2588.00
2023-05-21T09:31:53.501Z,3428.00
2023-05-21T09:32:53.458Z,2944.00
2023-05-21T09:33:53.502Z,4352.00
2023-05-21T09:34:53.471Z,3824.00
2023-05-21T09:35:53.513Z,4280.00
2023-05-21T09:36:53.507Z,4656.00
2023-05-21T09:37:53.534Z,4912.00
2023-05-21T09:38:53.579Z,4172.00
2023-05-21T09:39:53.595Z,4524.00
2023-05-21T09:40:53.612Z,4612.00
2023-05-21T09:41:53.645Z,4756.00
2023-05-21T09:42:53.679Z,5252.00
2023-05-21T09:43:53.723Z,5320.00
2023-05-21T09:44:53.742Z,5084.00
2023-05-21T09:45:53.940Z,4976.00
2023-05-21T09:46:53.881Z,4756.00
2023-05-21T09:47:53.859Z,5644.00
2023-05-21T09:48:53.818Z,5856.00
2023-05-21T09:49:53.853Z,6028.00
2023-05-21T09:50:53.900Z,4552.00
2023-05-21T09:51:53.901Z,4292.00
2023-05-21T09:52:53.937Z,4268.00
2023-05-21T09:53:53.957Z,5108.00
2023-05-21T09:54:53.981Z,4476.00
2023-05-21T09:55:54.011Z,4328.00
2023-05-21T09:56:54.076Z,4188.00
2023-05-21T09:57:54.058Z,2692.00
2023-05-21T09:58:54.084Z,2284.00
2023-05-21T09:59:54.152Z,2552.00
2023-05-21T10:00:54.142Z,2616.00
2023-05-21T10:01:54.233Z,2692.00
2023-05-21T10:02:54.269Z,2640.00
2023-05-21T10:03:54.302Z,2928.00
2023-05-21T10:04:54.340Z,2816.00
2023-05-21T10:05:54.270Z,2512.00
2023-05-21T10:06:54.326Z,2556.00
2023-05-21T10:07:54.393Z,2772.00
2023-05-21T10:08:54.356Z,3248.00
2023-05-21T10:09:54.391Z,3076.00
2023-05-21T10:10:54.401Z,3276.00
2023-05-21T10:11:54.428Z,3756.00
2023-05-21T10:12:54.479Z,3668.00
2023-05-21T10:13:54.478Z,3888.00
2023-05-21T10:14:54.501Z,4096.00
2023-05-21T10:15:54.619Z,4424.00
2023-05-21T10:16:54.605Z,3624.00
2023-05-21T10:17:54.624Z,4628.00
2023-05-21T10:18:54.618Z,4524.00
2023-05-21T10:19:54.639Z,4328.00
2023-05-21T10:20:54.728Z,4172.00
2023-05-21T10:21:54.713Z,4316.00
2023-05-21T10:22:54.720Z,4396.00
2023-05-21T10:23:54.741Z,4616.00
2023-05-21T10:24:54.796Z,4508.00
2023-05-21T10:25:54.852Z,4288.00
2023-05-21T10:26:54.819Z,3448.00
2023-05-21T10:27:54.848Z,3492.00
2023-05-21T10:28:54.876Z,3380.00
2023-05-21T10:29:54.901Z,3400.00
2023-05-21T10:30:54.958Z,3432.00
2023-05-21T10:31:54.993Z,3632.00
2023-05-21T10:32:55.151Z,3920.00
2023-05-21T10:33:55.036Z,3872.00
2023-05-21T10:34:55.033Z,3940.00
2023-05-21T10:35:55.060Z,4340.00
2023-05-21T10:36:55.093Z,4544.00
2023-05-21T10:37:55.193Z,3896.00
2023-05-21T10:38:55.234Z,4256.00
2023-05-21T10:39:55.173Z,3996.00
2023-05-21T10:40:55.192Z,4268.00
2023-05-21T10:41:56.980Z,3168.00
2023-05-21T10:42:55.262Z,2968.00
2023-05-21T10:43:55.332Z,2912.00
2023-05-21T10:44:55.302Z,2860.00
2023-05-21T10:45:55.382Z,2864.00
2023-05-21T10:46:55.407Z,3052.00
2023-05-21T10:47:55.432Z,3020.00
2023-05-21T10:48:55.438Z,3268.00
2023-05-21T10:49:55.458Z,2968.00
2023-05-21T10:50:55.472Z,3008.00
2023-05-21T10:51:55.493Z,3512.00
2023-05-21T10:52:55.530Z,3024.00
2023-05-21T10:53:55.567Z,3220.00
2023-05-21T10:54:55.568Z,3216.00
2023-05-21T10:55:55.610Z,3768.00
2023-05-21T10:56:55.623Z,3128.00
2023-05-21T10:57:55.709Z,3300.00
2023-05-21T10:58:55.687Z,3260.00
2023-05-21T10:59:55.702Z,3136.00
2023-05-21T11:00:55.864Z,3260.00
2023-05-21T11:01:55.754Z,3448.00
2023-05-21T11:02:55.829Z,3636.00
2023-05-21T11:03:55.863Z,4136.00
2023-05-21T11:04:55.842Z,3768.00
2023-05-21T11:05:55.869Z,4016.00
2023-05-21T11:06:55.900Z,4124.00
2023-05-21T11:07:55.955Z,5120.00
2023-05-21T11:08:56.072Z,4584.00
2023-05-21T11:09:55.978Z,5088.00
2023-05-21T11:10:56.001Z,5584.00
2023-05-21T11:11:56.024Z,6272.00
2023-05-21T11:12:56.109Z,5792.00
2023-05-21T11:13:56.081Z,5796.00
2023-05-21T11:14:56.110Z,5116.00
2023-05-21T11:15:56.138Z,4976.00
2023-05-21T11:16:56.223Z,4928.00
2023-05-21T11:17:56.315Z,4648.00
2023-05-21T11:18:56.239Z,5596.00
2023-05-21T11:19:56.251Z,4804.00
2023-05-21T11:20:56.279Z,5344.00
2023-05-21T11:21:56.309Z,4948.00
2023-05-21T11:22:56.383Z,5356.00
2023-05-21T11:23:56.360Z,5520.00
2023-05-21T11:24:56.459Z,5444.00
2023-05-21T11:25:56.415Z,5676.00
2023-05-21T11:26:56.449Z,7888.00
2023-05-21T11:27:56.485Z,9440.00
2023-05-21T11:28:56.504Z,9204.00
2023-05-21T11:29:56.571Z,9036.00
2023-05-21T11:30:56.591Z,7004.00
2023-05-21T11:31:56.590Z,6964.00
2023-05-21T11:32:56.674Z,5560.00
2023-05-21T11:33:56.655Z,6128.00
2023-05-21T11:34:56.675Z,4112.00
2023-05-21T11:35:56.706Z,2832.00
2023-05-21T11:36:56.734Z,3440.00
2023-05-21T11:37:56.770Z,3976.00
2023-05-21T11:38:56.794Z,2908.00
2023-05-21T11:39:56.819Z,2760.00
2023-05-21T11:40:56.874Z,2988.00
2023-05-21T11:41:56.891Z,2644.00
2023-05-21T11:42:56.974Z,3372.00
2023-05-21T11:43:56.939Z,2844.00
2023-05-21T11:44:56.965Z,3100.00
2023-05-21T11:45:57.000Z,2692.00
2023-05-21T11:46:57.082Z,2808.00
2023-05-21T11:47:57.142Z,3952.00
2023-05-21T11:48:57.084Z,2700.00
2023-05-21T11:49:57.130Z,2728.00
2023-05-21T11:50:57.136Z,2688.00
2023-05-21T11:51:57.206Z,3152.00
2023-05-21T11:52:57.222Z,2672.00
2023-05-21T11:53:57.287Z,2500.00
2023-05-21T11:54:57.269Z,2532.00
2023-05-21T11:55:57.351Z,2608.00
2023-05-21T11:56:57.312Z,2752.00
2023-05-21T11:57:57.344Z,2728.00
2023-05-21T11:58:57.396Z,2564.00
2023-05-21T11:59:57.399Z,2724.00
2023-05-21T12:00:57.462Z,2756.00
2023-05-21T12:01:57.454Z,2660.00
2023-05-21T12:02:57.801Z,2644.00
2023-05-21T12:03:57.597Z,2696.00
2023-05-21T12:04:57.569Z,2828.00
2023-05-21T12:05:57.622Z,2888.00
2023-05-21T12:06:57.594Z,3044.00
2023-05-21T12:07:57.622Z,3112.00
2023-05-21T12:08:57.651Z,3532.00
2023-05-21T12:09:57.744Z,3456.00
2023-05-21T12:10:57.705Z,3936.00
2023-05-21T12:11:57.738Z,3504.00
2023-05-21T12:12:57.908Z,3172.00
2023-05-21T12:13:57.854Z,3368.00
2023-05-21T12:14:57.917Z,2948.00
2023-05-21T12:15:57.890Z,3072.00
2023-05-21T12:16:58.017Z,3140.00
2023-05-21T12:17:58.130Z,3348.00
2023-05-21T12:18:57.978Z,3188.00
2023-05-21T12:19:58.013Z,3316.00
2023-05-21T12:20:58.024Z,3268.00
2023-05-21T12:21:58.032Z,3188.00
2023-05-21T12:22:58.079Z,3240.00
2023-05-21T12:23:58.076Z,3280.00
2023-05-21T12:24:58.138Z,3672.00
2023-05-21T12:25:58.247Z,3904.00
2023-05-21T12:26:58.163Z,3916.00
2023-05-21T12:27:58.484Z,3496.00
2023-05-21T12:28:58.216Z,4168.00
2023-05-21T12:29:58.241Z,3412.00
2023-05-21T12:30:58.277Z,3336.00
2023-05-21T12:31:58.333Z,3320.00